Time;durP1;ratioP1;P1;durP2;ratioP2;P2;SDS_P1;SDS_P2;PMS_P1;PMS_P2;Temp;Humidity;BMP_temperature;BMP_pressure;BME280_temperature;BME280_humidity;BME280_pressure;Samples;Min_cycle;Max_cycle;Signal;HPM_P1;HPM_P2
2023/05/01 00:01:22;;;;;;;12.77;7.97;;;11.60;75.50;;;;;;5050823;28;20415;-73
2023/05/01 00:03:48;;;;;;;12.50;8.13;;;11.50;75.90;;;;;;5033552;28;20628;-75
2023/05/01 00:06:13;;;;;;;10.73;7.30;;;11.40;76.20;;;;;;5051608;28;20416;-74
2023/05/01 00:08:39;;;;;;;14.03;7.80;;;11.30;76.40;;;;;;5048509;28;20209;-74
2023/05/01 00:11:10;;;;;;;13.57;8.07;;;11.20;76.40;;;;;;5051773;28;20177;-75
2023/05/01 00:13:35;;;;;;;12.13;8.00;;;11.20;76.50;;;;;;5051282;28;20188;-75
2023/05/01 00:16:06;;;;;;;12.80;7.30;;;11.20;76.80;;;;;;5051540;28;20429;-75
2023/05/01 00:18:31;;;;;;;14.07;8.37;;;11.30;77.00;;;;;;5048828;28;20220;-75
2023/05/01 00:20:57;;;;;;;12.73;7.00;;;11.40;76.70;;;;;;5051523;28;20913;-76
2023/05/01 00:23:22;;;;;;;10.27;6.97;;;11.40;76.50;;;;;;5051504;28;20271;-74
2023/05/01 00:25:48;;;;;;;8.27;6.53;;;11.50;76.50;;;;;;5032492;28;20192;-75
2023/05/01 00:28:14;;;;;;;9.87;7.10;;;11.50;76.50;;;;;;5048522;28;20192;-74
2023/05/01 00:30:40;;;;;;;10.93;6.83;;;11.50;76.20;;;;;;5049443;28;20668;-74
2023/05/01 00:33:05;;;;;;;13.20;7.40;;;11.50;75.70;;;;;;5049292;28;20188;-74
2023/05/01 00:35:31;;;;;;;10.60;7.20;;;11.50;75.70;;;;;;5049502;28;20821;-73
2023/05/01 00:37:57;;;;;;;9.80;6.47;;;11.40;75.80;;;;;;5031653;28;20212;-74
2023/05/01 00:40:23;;;;;;;13.17;7.50;;;11.40;76.10;;;;;;5043047;28;20257;-75
2023/05/01 00:42:48;;;;;;;12.27;7.53;;;11.50;76.10;;;;;;5048703;28;20929;-74
2023/05/01 00:45:14;;;;;;;11.90;7.77;;;11.50;76.20;;;;;;5049283;28;20423;-74
2023/05/01 00:47:40;;;;;;;13.00;9.07;;;11.50;76.20;;;;;;5031563;28;20246;-74
2023/05/01 00:50:07;;;;;;;12.80;8.30;;;11.50;76.20;;;;;;5044190;28;20462;-74
2023/05/01 00:52:33;;;;;;;12.40;8.07;;;11.50;76.20;;;;;;5048703;28;20659;-74
2023/05/01 00:54:58;;;;;;;13.97;8.23;;;11.40;76.50;;;;;;5050584;28;20427;-74
2023/05/01 00:57:24;;;;;;;13.50;8.20;;;11.30;77.00;;;;;;5049737;28;20887;-74
2023/05/01 00:59:50;;;;;;;13.23;7.80;;;11.20;77.30;;;;;;5047059;28;20330;-77
2023/05/01 01:02:15;;;;;;;13.80;8.53;;;11.10;77.70;;;;;;5048640;28;20265;-75
2023/05/01 01:04:43;;;;;;;12.60;8.40;;;11.10;77.80;;;;;;5049631;28;20204;-76
2023/05/01 01:07:22;;;;;;;17.27;9.03;;;11.10;78.30;;;;;;5049861;28;20299;-75
2023/05/01 01:10:22;;;;;;;12.53;7.80;;;11.10;78.40;;;;;;5031283;28;20511;-76
2023/05/01 01:13:00;;;;;;;11.50;7.63;;;11.10;78.30;;;;;;5050050;28;20806;-74
2023/05/01 01:15:33;;;;;;;12.23;8.23;;;11.00;78.10;;;;;;5031126;28;20427;-74
2023/05/01 01:18:15;;;;;;;11.37;7.23;;;11.00;78.00;;;;;;5040705;28;20477;-73
2023/05/01 01:20:48;;;;;;;11.80;7.43;;;11.00;77.80;;;;;;5051098;28;20515;-73
2023/05/01 01:23:45;;;;;;;11.80;8.27;;;11.10;77.40;;;;;;5054735;28;20506;-75
2023/05/01 01:26:22;;;;;;;12.23;7.70;;;11.10;77.30;;;;;;5033413;28;20435;-74
2023/05/01 01:28:51;;;;;;;9.60;7.60;;;11.00;77.60;;;;;;5048010;28;20556;-74
2023/05/01 01:31:21;;;;;;;10.10;6.77;;;11.10;77.30;;;;;;5042164;28;20422;-74
2023/05/01 01:33:53;;;;;;;9.87;6.30;;;11.10;77.00;;;;;;5029837;28;20501;-73
2023/05/01 01:36:40;;;;;;;12.53;7.50;;;11.10;76.50;;;;;;5051096;28;20419;-75
2023/05/01 01:39:15;;;;;;;11.43;7.77;;;11.10;76.70;;;;;;5049950;28;20459;-74
2023/05/01 01:41:45;;;;;;;14.43;8.57;;;11.20;77.10;;;;;;5050374;28;20497;-74
2023/05/01 01:44:29;;;;;;;12.30;8.50;;;11.20;77.30;;;;;;5051553;28;20538;-76
2023/05/01 01:46:58;;;;;;;11.83;8.13;;;11.00;77.80;;;;;;5044367;28;20965;-76
2023/05/01 01:49:26;;;;;;;14.13;8.63;;;10.80;78.30;;;;;;5048745;28;20474;-75
2023/05/01 01:51:54;;;;;;;14.27;8.10;;;10.80;78.70;;;;;;5034453;28;20453;-74
2023/05/01 01:54:25;;;;;;;12.20;8.20;;;10.70;79.00;;;;;;5052590;28;20465;-73
2023/05/01 01:56:52;;;;;;;11.67;8.10;;;10.70;79.00;;;;;;5046853;28;20988;-72
2023/05/01 01:59:20;;;;;;;14.33;8.90;;;10.80;79.20;;;;;;5050014;28;20455;-72
2023/05/01 02:01:48;;;;;;;12.23;8.10;;;10.80;79.00;;;;;;5052176;28;20446;-71
2023/05/01 02:04:14;;;;;;;11.93;8.20;;;10.80;79.20;;;;;;5052593;28;20773;-72
2023/05/01 02:06:41;;;;;;;11.47;7.17;;;10.90;79.00;;;;;;5051367;28;20438;-73
2023/05/01 02:09:08;;;;;;;11.17;6.90;;;10.90;79.20;;;;;;5044463;28;20458;-72
2023/05/01 02:11:36;;;;;;;12.53;7.53;;;11.00;79.00;;;;;;5051981;28;20476;-72
2023/05/01 02:14:03;;;;;;;14.60;7.83;;;11.00;78.60;;;;;;5052587;28;20510;-73
2023/05/01 02:16:29;;;;;;;12.03;8.30;;;11.00;78.60;;;;;;5052549;28;20485;-74
2023/05/01 02:18:56;;;;;;;12.50;6.97;;;11.00;78.60;;;;;;5050926;28;20459;-74
2023/05/01 02:21:25;;;;;;;11.83;7.20;;;11.10;78.30;;;;;;5049055;28;20827;-73
2023/05/01 02:23:50;;;;;;;13.10;7.77;;;11.20;77.70;;;;;;5034366;28;20993;-74
2023/05/01 02:26:20;;;;;;;10.27;7.50;;;11.20;77.40;;;;;;5057354;28;20420;-74
2023/05/01 02:28:46;;;;;;;13.30;7.80;;;11.20;77.30;;;;;;5052162;28;20200;-75
2023/05/01 02:31:11;;;;;;;12.40;7.60;;;11.30;77.00;;;;;;5058747;28;20752;-75
2023/05/01 02:33:37;;;;;;;13.80;7.80;;;11.30;77.10;;;;;;5060179;28;20255;-75
2023/05/01 02:36:04;;;;;;;12.40;8.27;;;11.30;77.00;;;;;;5053178;28;20669;-74
2023/05/01 02:38:29;;;;;;;11.90;8.10;;;11.40;76.80;;;;;;5050147;28;20208;-74
2023/05/01 02:40:57;;;;;;;11.60;7.43;;;11.40;76.50;;;;;;5052088;28;20502;-76
2023/05/01 02:43:25;;;;;;;15.03;7.17;;;11.40;76.40;;;;;;5052008;28;20250;-73
2023/05/01 02:45:53;;;;;;;8.80;7.23;;;11.40;76.20;;;;;;5051944;28;20429;-73
2023/05/01 02:48:26;;;;;;;10.90;7.60;;;11.40;76.20;;;;;;5049048;28;20439;-75
2023/05/01 02:50:54;;;;;;;14.37;7.83;;;11.40;76.40;;;;;;5047459;28;20429;-76
2023/05/01 02:53:21;;;;;;;10.80;7.53;;;11.40;76.40;;;;;;5054260;28;20481;-74
2023/05/01 02:55:47;;;;;;;11.57;7.13;;;11.40;76.40;;;;;;5054556;28;20489;-75
2023/05/01 02:58:17;;;;;;;11.40;7.47;;;11.40;76.40;;;;;;5033969;28;20466;-74
2023/05/01 03:00:44;;;;;;;15.93;8.20;;;11.50;76.40;;;;;;5053685;28;20502;-74
2023/05/01 03:03:10;;;;;;;12.97;8.17;;;11.40;76.50;;;;;;5054036;28;20427;-74
2023/05/01 03:05:37;;;;;;;14.17;8.03;;;11.50;76.50;;;;;;5034774;28;20430;-74
2023/05/01 03:08:03;;;;;;;13.00;7.67;;;11.50;76.20;;;;;;5052389;28;20427;-74
2023/05/01 03:10:28;;;;;;;11.63;8.17;;;11.40;76.40;;;;;;5049641;28;20488;-74
2023/05/01 03:12:54;;;;;;;9.43;7.43;;;11.40;76.20;;;;;;5051658;28;20471;-75
2023/05/01 03:15:20;;;;;;;13.80;9.40;;;11.50;76.20;;;;;;5051495;28;20184;-73
2023/05/01 03:17:45;;;;;;;14.07;8.47;;;11.50;76.10;;;;;;5050780;28;20239;-72
2023/05/01 03:20:11;;;;;;;15.40;9.60;;;11.40;76.50;;;;;;5032125;28;20204;-73
2023/05/01 03:22:37;;;;;;;13.07;7.93;;;11.40;76.80;;;;;;5049627;28;20748;-74
2023/05/01 03:25:03;;;;;;;18.90;10.80;;;11.50;77.00;;;;;;5051511;28;20936;-73
2023/05/01 03:27:29;;;;;;;14.67;9.50;;;11.60;76.80;;;;;;5047726;28;20532;-72
2023/05/01 03:29:55;;;;;;;12.50;8.73;;;11.60;76.70;;;;;;5049495;28;20459;-74
2023/05/01 03:32:21;;;;;;;12.80;8.63;;;11.60;76.70;;;;;;5052237;28;20795;-74
2023/05/01 03:34:47;;;;;;;13.77;8.53;;;11.60;76.50;;;;;;5052986;28;20419;-75
2023/05/01 03:37:13;;;;;;;14.03;9.53;;;11.50;76.80;;;;;;5055238;28;20695;-74
2023/05/01 03:39:40;;;;;;;13.63;8.60;;;11.50;77.10;;;;;;5053069;28;20204;-76
2023/05/01 03:42:05;;;;;;;19.20;9.63;;;11.50;77.30;;;;;;5051242;28;20846;-76
2023/05/01 03:44:31;;;;;;;20.97;10.87;;;11.60;77.70;;;;;;5050781;28;20555;-75
2023/05/01 03:46:57;;;;;;;19.20;11.53;;;11.60;77.70;;;;;;5051544;28;20184;-77
2023/05/01 03:49:23;;;;;;;17.60;11.63;;;11.40;78.10;;;;;;5031418;28;20208;-74
2023/05/01 03:51:48;;;;;;;20.83;11.83;;;11.20;79.30;;;;;;5049622;28;20423;-75
2023/05/01 03:54:14;;;;;;;21.77;11.90;;;11.10;80.00;;;;;;5032643;28;20184;-75
2023/05/01 03:56:40;;;;;;;18.50;10.80;;;11.10;80.30;;;;;;5045058;28;20208;-74
2023/05/01 03:59:06;;;;;;;15.90;10.53;;;11.20;80.50;;;;;;5048388;28;20524;-74
2023/05/01 04:01:34;;;;;;;20.63;10.27;;;11.30;80.00;;;;;;5045501;28;20177;-74
2023/05/01 04:04:00;;;;;;;17.77;10.37;;;11.40;79.70;;;;;;5051894;28;20255;-72
2023/05/01 04:06:27;;;;;;;17.73;11.37;;;11.40;79.60;;;;;;5052248;28;20419;-74
2023/05/01 04:08:52;;;;;;;23.07;12.70;;;11.40;79.50;;;;;;5049552;28;21009;-74
2023/05/01 04:11:18;;;;;;;18.30;11.80;;;11.20;79.70;;;;;;5052044;28;20503;-73
2023/05/01 04:13:43;;;;;;;20.67;12.37;;;11.30;80.00;;;;;;5033812;28;20200;-74
2023/05/01 04:16:09;;;;;;;22.63;10.73;;;11.30;79.70;;;;;;5051186;28;20180;-75
2023/05/01 04:18:34;;;;;;;19.87;11.60;;;11.30;80.00;;;;;;5048821;28;20251;-75
2023/05/01 04:21:00;;;;;;;23.37;13.10;;;11.40;79.90;;;;;;5032864;28;20173;-75
2023/05/01 04:23:26;;;;;;;21.43;12.20;;;11.40;79.70;;;;;;5057442;28;20215;-74
2023/05/01 04:25:51;;;;;;;20.10;11.90;;;11.40;79.20;;;;;;5060616;28;20189;-73
2023/05/01 04:28:17;;;;;;;16.90;9.90;;;11.40;79.50;;;;;;5056209;28;20271;-74
2023/05/01 04:30:42;;;;;;;19.60;11.40;;;11.30;79.20;;;;;;5055950;28;20188;-73
2023/05/01 04:33:11;;;;;;;16.43;11.17;;;11.40;79.20;;;;;;5056446;28;20201;-73
2023/05/01 04:35:38;;;;;;;19.97;10.20;;;11.50;79.00;;;;;;5057356;28;20184;-74
2023/05/01 04:38:04;;;;;;;15.60;10.80;;;11.60;78.40;;;;;;5056516;28;20474;-72
2023/05/01 04:40:30;;;;;;;18.03;10.67;;;11.60;78.00;;;;;;5055897;28;20446;-74
2023/05/01 04:42:55;;;;;;;15.27;9.60;;;11.60;77.70;;;;;;5058698;28;20442;-73
2023/05/01 04:45:21;;;;;;;18.27;10.93;;;11.60;77.30;;;;;;5039903;28;20184;-73
2023/05/01 04:47:47;;;;;;;14.47;9.07;;;11.60;76.80;;;;;;5055029;28;20187;-73
2023/05/01 04:50:13;;;;;;;14.43;9.73;;;11.60;76.70;;;;;;5056926;28;20212;-73
2023/05/01 04:52:39;;;;;;;15.00;9.67;;;11.60;76.50;;;;;;5059869;28;20519;-74
2023/05/01 04:55:05;;;;;;;16.07;9.97;;;11.70;75.90;;;;;;5056941;28;20541;-73
2023/05/01 04:57:30;;;;;;;14.90;9.23;;;11.60;75.40;;;;;;5055026;28;20691;-74
2023/05/01 04:59:56;;;;;;;16.87;10.87;;;11.50;75.90;;;;;;5054570;28;20476;-74
2023/05/01 05:02:22;;;;;;;13.50;9.00;;;11.60;75.80;;;;;;5054514;28;20197;-74
2023/05/01 05:04:48;;;;;;;13.73;9.90;;;11.60;75.90;;;;;;5054807;28;20486;-73
2023/05/01 05:07:13;;;;;;;14.13;9.63;;;11.60;76.20;;;;;;5052084;28;20204;-72
2023/05/01 05:09:39;;;;;;;15.50;9.30;;;11.70;76.20;;;;;;5053004;28;20212;-74
2023/05/01 05:12:05;;;;;;;13.07;9.50;;;11.80;76.20;;;;;;5057749;28;20199;-73
2023/05/01 05:14:30;;;;;;;14.33;9.93;;;11.80;76.10;;;;;;5056916;28;20934;-75
2023/05/01 05:16:56;;;;;;;14.07;9.87;;;11.80;76.20;;;;;;5036228;28;20215;-73
2023/05/01 05:19:21;;;;;;;15.10;9.53;;;11.70;76.20;;;;;;5053574;28;20196;-73
2023/05/01 05:21:47;;;;;;;15.47;10.50;;;11.60;76.50;;;;;;5054306;28;20181;-75
2023/05/01 05:24:13;;;;;;;16.13;10.17;;;11.50;76.80;;;;;;5052415;28;20234;-74
2023/05/01 05:26:39;;;;;;;14.67;9.77;;;11.60;77.00;;;;;;5051778;28;20177;-74
2023/05/01 05:29:04;;;;;;;14.67;9.50;;;11.70;77.00;;;;;;5051259;28;20461;-74
2023/05/01 05:31:30;;;;;;;14.40;10.50;;;11.60;76.70;;;;;;5052625;28;20592;-74
2023/05/01 05:33:56;;;;;;;15.43;10.40;;;11.70;76.70;;;;;;5053035;28;20420;-74
2023/05/01 05:36:21;;;;;;;16.40;9.67;;;11.90;76.20;;;;;;5053153;28;20180;-73
2023/05/01 05:38:47;;;;;;;16.37;10.37;;;11.90;75.80;;;;;;5034468;28;20266;-74
2023/05/01 05:41:12;;;;;;;18.30;10.63;;;11.90;75.50;;;;;;5054032;28;20280;-74
2023/05/01 05:43:38;;;;;;;16.90;9.37;;;11.90;75.70;;;;;;5053869;28;20203;-75
2023/05/01 05:46:04;;;;;;;16.13;9.67;;;11.90;75.50;;;;;;5053797;28;20207;-76
2023/05/01 05:48:29;;;;;;;18.40;9.87;;;11.80;76.40;;;;;;5052593;28;20247;-75
2023/05/01 05:50:56;;;;;;;13.23;9.63;;;11.70;77.00;;;;;;5035563;28;20188;-75
2023/05/01 05:53:21;;;;;;;16.97;10.00;;;11.50;77.80;;;;;;5053258;28;20177;-74
2023/05/01 05:55:47;;;;;;;22.37;10.20;;;11.50;78.40;;;;;;5034401;28;20427;-74
2023/05/01 05:58:18;;;;;;;16.73;9.63;;;11.40;78.90;;;;;;5051662;28;20216;-75
2023/05/01 06:00:46;;;;;;;15.33;9.83;;;11.20;79.60;;;;;;5051991;28;20238;-74
2023/05/01 06:03:11;;;;;;;18.07;11.30;;;11.20;80.20;;;;;;5035123;28;20422;-74
2023/05/01 06:05:37;;;;;;;22.07;11.20;;;11.20;80.50;;;;;;5051994;28;20411;-74
2023/05/01 06:08:03;;;;;;;15.37;9.60;;;11.20;80.60;;;;;;5052991;28;20189;-76
2023/05/01 06:10:28;;;;;;;14.00;9.13;;;11.20;81.10;;;;;;5054443;28;20239;-74
2023/05/01 06:12:54;;;;;;;17.00;10.07;;;11.20;81.10;;;;;;5065555;28;20192;-74
2023/05/01 06:15:20;;;;;;;14.83;9.70;;;11.30;80.90;;;;;;5070743;28;20503;-74
2023/05/01 06:17:45;;;;;;;15.00;10.57;;;11.30;81.10;;;;;;5075104;28;20323;-75
2023/05/01 06:20:12;;;;;;;17.43;10.40;;;11.40;80.80;;;;;;5074459;28;20192;-74
2023/05/01 06:22:38;;;;;;;16.17;10.03;;;11.40;80.90;;;;;;5069765;28;20189;-75
2023/05/01 06:25:05;;;;;;;13.90;8.67;;;11.50;80.90;;;;;;5070546;28;20407;-74
2023/05/01 06:27:31;;;;;;;11.50;8.70;;;11.50;80.00;;;;;;5052487;28;20180;-75
2023/05/01 06:29:56;;;;;;;15.30;10.10;;;11.70;78.90;;;;;;5068222;28;20462;-72
2023/05/01 06:32:22;;;;;;;14.57;8.93;;;11.80;78.30;;;;;;5059513;28;20268;-71
2023/05/01 06:34:48;;;;;;;15.67;8.80;;;11.90;77.00;;;;;;5063425;28;20188;-71
2023/05/01 06:37:13;;;;;;;17.17;10.13;;;12.00;77.10;;;;;;5059444;28;20210;-71
2023/05/01 06:39:39;;;;;;;14.90;10.37;;;12.00;77.70;;;;;;5036047;28;20299;-72
2023/05/01 06:42:06;;;;;;;17.73;10.00;;;12.10;77.80;;;;;;5056295;28;20180;-72
2023/05/01 06:44:32;;;;;;;20.33;10.50;;;12.00;77.40;;;;;;5055318;28;20840;-73
2023/05/01 06:47:00;;;;;;;16.50;10.97;;;12.20;78.00;;;;;;5058280;28;20422;-72
2023/05/01 06:49:26;;;;;;;17.57;11.27;;;12.30;77.70;;;;;;5053951;28;20315;-72
2023/05/01 06:51:52;;;;;;;17.57;10.60;;;12.40;78.00;;;;;;5056326;28;20446;-72
2023/05/01 06:54:17;;;;;;;18.43;10.10;;;12.50;77.60;;;;;;5053496;28;20447;-71
2023/05/01 06:56:43;;;;;;;19.53;12.43;;;12.50;77.30;;;;;;5052373;28;20220;-73
2023/05/01 06:59:09;;;;;;;13.70;9.30;;;12.60;77.10;;;;;;5032946;28;20209;-72
2023/05/01 07:01:34;;;;;;;13.00;8.73;;;12.60;75.40;;;;;;5050465;28;20187;-72
2023/05/01 07:04:00;;;;;;;11.63;8.60;;;12.60;74.90;;;;;;5053221;28;20567;-72
2023/05/01 07:06:26;;;;;;;12.53;8.60;;;12.70;74.00;;;;;;5053140;28;20172;-73
2023/05/01 07:08:52;;;;;;;10.90;7.57;;;12.70;73.70;;;;;;5051426;28;20201;-73
2023/05/01 07:11:17;;;;;;;14.47;8.37;;;12.70;73.20;;;;;;5035173;28;20933;-73
2023/05/01 07:13:43;;;;;;;12.00;7.67;;;12.70;73.00;;;;;;5049244;28;20181;-74
2023/05/01 07:16:09;;;;;;;11.77;7.33;;;12.80;73.60;;;;;;5048486;28;20284;-73
2023/05/01 07:18:34;;;;;;;10.53;7.63;;;12.90;72.90;;;;;;5043239;28;20232;-73
2023/05/01 07:21:00;;;;;;;11.23;7.53;;;13.00;73.00;;;;;;5045872;28;20199;-74
2023/05/01 07:23:26;;;;;;;23.63;14.27;;;13.00;73.20;;;;;;5048584;28;20188;-73
2023/05/01 07:25:51;;;;;;;19.37;12.23;;;13.00;72.30;;;;;;5048640;28;20180;-73
2023/05/01 07:28:19;;;;;;;21.40;13.70;;;13.10;73.20;;;;;;5046719;28;20197;-73
2023/05/01 07:30:44;;;;;;;15.67;9.30;;;13.20;73.00;;;;;;5047930;28;20434;-73
2023/05/01 07:33:10;;;;;;;13.63;9.43;;;13.10;72.30;;;;;;5048030;28;20435;-73
2023/05/01 07:35:36;;;;;;;15.40;8.87;;;13.10;72.70;;;;;;5048797;28;20686;-73
2023/05/01 07:38:02;;;;;;;12.10;7.73;;;13.00;73.20;;;;;;5049001;28;20524;-72
2023/05/01 07:40:27;;;;;;;10.97;7.60;;;13.10;73.30;;;;;;5044219;28;20528;-72
2023/05/01 07:42:53;;;;;;;11.83;8.80;;;13.20;73.20;;;;;;5048355;28;20193;-73
2023/05/01 07:45:19;;;;;;;12.10;7.90;;;13.30;73.30;;;;;;5044564;28;20184;-73
2023/05/01 07:47:44;;;;;;;12.37;8.63;;;13.30;72.60;;;;;;5048650;28;20279;-71
2023/05/01 07:50:11;;;;;;;17.10;8.10;;;13.50;73.00;;;;;;5044089;28;20666;-73
2023/05/01 07:52:37;;;;;;;13.00;8.77;;;13.70;72.30;;;;;;5048483;28;21016;-71
2023/05/01 07:55:03;;;;;;;13.87;9.10;;;13.80;72.00;;;;;;5048549;28;20423;-71
2023/05/01 07:57:29;;;;;;;21.80;12.57;;;13.90;71.60;;;;;;5048584;28;20525;-74
2023/05/01 07:59:55;;;;;;;31.87;18.93;;;13.70;71.70;;;;;;5047644;28;20893;-72
2023/05/01 08:02:21;;;;;;;13.73;9.40;;;13.60;72.00;;;;;;5035637;28;20485;-73
2023/05/01 08:04:47;;;;;;;14.40;9.60;;;13.30;71.30;;;;;;5044143;28;20172;-73
2023/05/01 08:07:13;;;;;;;14.67;9.73;;;13.60;71.60;;;;;;5052015;28;20767;-73
2023/05/01 08:09:39;;;;;;;13.00;8.20;;;13.70;70.40;;;;;;5047091;28;20209;-73
2023/05/01 08:12:05;;;;;;;12.47;8.70;;;13.70;70.20;;;;;;5048227;28;20420;-71
2023/05/01 08:14:30;;;;;;;11.57;8.00;;;13.80;70.10;;;;;;5052539;28;20430;-73
2023/05/01 08:16:56;;;;;;;14.27;8.30;;;13.90;69.80;;;;;;5055357;28;20212;-73
2023/05/01 08:19:22;;;;;;;12.43;8.50;;;14.00;69.40;;;;;;5049975;28;20208;-72
2023/05/01 08:21:48;;;;;;;12.00;8.07;;;14.10;68.80;;;;;;5055268;28;20176;-72
2023/05/01 08:24:13;;;;;;;12.90;8.43;;;14.00;69.10;;;;;;5051787;28;20811;-71
2023/05/01 08:26:39;;;;;;;13.17;8.03;;;13.90;69.50;;;;;;5049384;28;20192;-74
2023/05/01 08:29:05;;;;;;;13.20;9.00;;;13.90;69.70;;;;;;5047504;28;20196;-71
2023/05/01 08:31:30;;;;;;;13.20;8.53;;;13.90;69.90;;;;;;5047833;28;20180;-71
2023/05/01 08:33:56;;;;;;;13.73;8.40;;;13.70;70.50;;;;;;5048685;28;20639;-73
2023/05/01 08:36:22;;;;;;;11.83;8.23;;;13.90;70.50;;;;;;5030342;28;20220;-73
2023/05/01 08:38:47;;;;;;;14.77;8.57;;;14.00;70.50;;;;;;5044815;28;20216;-73
2023/05/01 08:41:20;;;;;;;13.17;8.77;;;14.20;70.10;;;;;;5046256;28;20181;-72
2023/05/01 08:43:47;;;;;;;14.90;7.90;;;14.30;69.70;;;;;;5047128;28;20196;-72
2023/05/01 08:46:20;;;;;;;16.43;11.07;;;14.20;69.70;;;;;;5049550;28;20546;-72
2023/05/01 08:48:47;;;;;;;17.23;10.07;;;14.10;70.50;;;;;;5048886;28;20462;-71
2023/05/01 08:51:15;;;;;;;16.10;10.20;;;14.20;70.50;;;;;;5049215;28;20426;-72
2023/05/01 08:53:42;;;;;;;15.30;9.07;;;14.50;70.10;;;;;;5050759;28;20432;-73
2023/05/01 08:56:12;;;;;;;10.33;7.60;;;14.80;69.70;;;;;;5051594;28;20416;-72
2023/05/01 08:58:38;;;;;;;16.03;9.70;;;15.00;69.10;;;;;;5041679;28;20595;-72
2023/05/01 09:01:05;;;;;;;13.80;8.23;;;15.30;68.60;;;;;;5047644;28;20415;-71
2023/05/01 09:03:31;;;;;;;11.03;7.47;;;15.50;68.30;;;;;;5051322;28;20429;-74
2023/05/01 09:05:58;;;;;;;13.93;8.53;;;15.70;67.00;;;;;;5051204;28;20415;-73
2023/05/01 09:08:24;;;;;;;12.27;8.23;;;15.80;66.70;;;;;;5048765;28;20470;-72
2023/05/01 09:10:51;;;;;;;13.03;8.07;;;15.70;67.20;;;;;;5050543;28;20442;-72
2023/05/01 09:13:18;;;;;;;12.47;7.50;;;15.70;67.30;;;;;;5051031;28;20673;-73
2023/05/01 09:15:43;;;;;;;11.00;7.90;;;15.70;67.60;;;;;;5048987;28;20429;-72
2023/05/01 09:18:10;;;;;;;12.03;8.07;;;15.70;67.90;;;;;;5050272;28;20469;-74
2023/05/01 09:20:36;;;;;;;13.60;8.43;;;15.50;68.30;;;;;;5050045;28;20224;-74
2023/05/01 09:23:02;;;;;;;10.73;7.93;;;15.30;68.80;;;;;;5051088;28;20440;-73
2023/05/01 09:25:28;;;;;;;10.97;7.80;;;15.30;68.90;;;;;;5051097;28;20896;-73
2023/05/01 09:27:55;;;;;;;11.03;7.70;;;15.20;68.80;;;;;;5051660;28;20185;-73
2023/05/01 09:30:37;;;;;;;10.80;7.40;;;15.20;69.20;;;;;;5048577;28;20454;-72
2023/05/01 09:33:09;;;;;;;14.23;7.17;;;15.50;68.90;;;;;;5055036;28;20421;-73
2023/05/01 09:35:52;;;;;;;12.00;7.70;;;15.80;68.50;;;;;;5053566;28;21035;-75
2023/05/01 09:38:23;;;;;;;11.13;7.60;;;15.90;68.20;;;;;;5052199;28;20568;-71
2023/05/01 09:40:49;;;;;;;10.70;8.70;;;16.30;67.60;;;;;;5047163;28;20437;-72
2023/05/01 09:43:26;;;;;;;11.80;8.07;;;16.10;67.60;;;;;;5051432;28;20458;-73
2023/05/01 09:46:08;;;;;;;11.43;8.30;;;16.20;67.50;;;;;;5052321;28;20476;-73
2023/05/01 09:48:34;;;;;;;12.33;8.73;;;16.10;68.00;;;;;;5047016;28;20458;-72
2023/05/01 09:51:00;;;;;;;13.37;9.17;;;16.30;68.30;;;;;;5033676;28;20423;-72
2023/05/01 09:53:39;;;;;;;14.90;10.63;;;16.60;68.20;;;;;;5052314;28;20445;-74
2023/05/01 09:56:05;;;;;;;16.63;10.90;;;16.40;68.30;;;;;;5034188;28;20423;-71
2023/05/01 09:58:31;;;;;;;14.17;9.93;;;16.20;68.60;;;;;;5050600;28;20497;-72
2023/05/01 10:00:56;;;;;;;15.57;10.30;;;16.10;69.10;;;;;;5051661;28;20415;-73
2023/05/01 10:03:22;;;;;;;20.50;11.40;;;16.10;69.20;;;;;;5032988;28;20209;-72
2023/05/01 10:05:47;;;;;;;15.63;10.80;;;16.00;69.40;;;;;;5048626;28;20714;-73
2023/05/01 10:08:14;;;;;;;15.63;9.40;;;15.80;69.80;;;;;;5049516;28;20188;-73
2023/05/01 10:10:42;;;;;;;15.77;9.53;;;15.80;69.90;;;;;;5049331;28;20196;-71
2023/05/01 10:13:16;;;;;;;13.40;9.60;;;15.90;69.70;;;;;;5049805;28;20419;-72
2023/05/01 10:15:45;;;;;;;15.30;11.30;;;15.90;69.40;;;;;;5049527;28;20430;-74
2023/05/01 10:18:12;;;;;;;14.93;9.33;;;15.70;69.40;;;;;;5048978;28;20470;-72
2023/05/01 10:20:38;;;;;;;17.77;10.70;;;15.70;69.90;;;;;;5048412;28;20437;-72
2023/05/01 10:23:04;;;;;;;15.90;9.93;;;15.80;69.80;;;;;;5032113;28;20830;-71
2023/05/01 10:25:31;;;;;;;14.00;8.83;;;15.80;69.80;;;;;;5049880;28;20180;-73
2023/05/01 10:27:57;;;;;;;12.77;9.17;;;15.90;69.70;;;;;;5046440;28;20250;-73
2023/05/01 10:30:25;;;;;;;16.23;9.80;;;16.10;69.10;;;;;;5047088;28;21023;-73
2023/05/01 10:32:51;;;;;;;14.43;9.00;;;16.00;68.90;;;;;;5053319;28;20422;-74
2023/05/01 10:35:36;;;;;;;16.57;9.23;;;16.20;68.50;;;;;;5054657;28;20438;-73
2023/05/01 10:38:05;;;;;;;15.20;9.60;;;16.30;68.00;;;;;;5038439;28;20463;-74
2023/05/01 10:40:50;;;;;;;15.57;10.63;;;16.30;68.00;;;;;;5045346;28;20492;-73
2023/05/01 10:43:30;;;;;;;14.63;10.23;;;16.00;68.50;;;;;;5046149;28;20439;-72
2023/05/01 10:46:15;;;;;;;16.30;10.73;;;16.10;68.80;;;;;;5046848;28;20898;-71
2023/05/01 10:48:43;;;;;;;15.53;9.03;;;16.40;68.20;;;;;;5035549;28;20541;-72
2023/05/01 10:51:14;;;;;;;15.67;9.97;;;16.70;67.60;;;;;;5052769;28;20503;-71
2023/05/01 10:53:41;;;;;;;14.83;10.10;;;17.00;66.30;;;;;;5050432;28;20971;-71
2023/05/01 10:56:31;;;;;;;13.53;9.33;;;16.80;66.60;;;;;;5054039;28;20420;-72
2023/05/01 10:59:03;;;;;;;15.83;10.67;;;17.10;66.70;;;;;;5044803;28;20571;-70
2023/05/01 11:01:36;;;;;;;13.13;9.40;;;17.30;65.60;;;;;;5048730;28;20424;-71
2023/05/01 11:04:06;;;;;;;14.40;10.60;;;17.20;65.70;;;;;;5048498;28;20433;-72
2023/05/01 11:06:32;;;;;;;15.87;9.90;;;17.00;66.00;;;;;;5049311;28;20426;-73
2023/05/01 11:08:58;;;;;;;16.33;10.90;;;16.90;66.60;;;;;;5046376;28;20829;-72
2023/05/01 11:11:24;;;;;;;13.30;9.47;;;16.70;67.00;;;;;;5048874;28;20189;-72
2023/05/01 11:14:07;;;;;;;14.00;9.23;;;16.70;67.00;;;;;;5031311;28;20478;-73
2023/05/01 11:16:34;;;;;;;13.20;8.93;;;17.00;66.60;;;;;;5031399;28;20180;-72
2023/05/01 11:18:59;;;;;;;17.43;11.17;;;17.00;66.30;;;;;;5047331;28;20612;-72
2023/05/01 11:21:33;;;;;;;11.13;8.00;;;17.20;65.70;;;;;;5048782;28;20438;-72
2023/05/01 11:24:00;;;;;;;14.83;9.30;;;17.20;65.40;;;;;;5048493;28;20540;-72
2023/05/01 11:26:27;;;;;;;15.70;10.70;;;17.10;65.80;;;;;;5048841;28;20427;-72
2023/05/01 11:28:55;;;;;;;14.13;9.73;;;17.00;66.30;;;;;;5047070;28;20461;-71
2023/05/01 11:31:21;;;;;;;14.60;9.00;;;16.80;66.40;;;;;;5030696;28;21004;-72
2023/05/01 11:33:47;;;;;;;13.43;8.10;;;17.10;66.40;;;;;;5045759;28;20456;-72
2023/05/01 11:36:13;;;;;;;18.30;8.93;;;17.30;65.80;;;;;;5049037;28;20347;-72
2023/05/01 11:38:55;;;;;;;17.73;8.43;;;17.50;65.00;;;;;;5046809;28;20700;-72
2023/05/01 11:41:22;;;;;;;15.17;9.90;;;17.60;65.30;;;;;;5048603;28;20184;-72
2023/05/01 11:43:57;;;;;;;11.77;8.47;;;17.20;65.70;;;;;;5047958;28;20867;-72
2023/05/01 11:46:26;;;;;;;15.10;9.63;;;17.20;66.00;;;;;;5047346;28;20416;-74
2023/05/01 11:48:53;;;;;;;12.07;9.07;;;17.00;66.30;;;;;;5042433;28;20455;-74
2023/05/01 11:51:19;;;;;;;15.27;10.30;;;17.10;66.30;;;;;;5033826;28;20431;-74
2023/05/01 11:54:04;;;;;;;19.40;9.87;;;17.20;65.80;;;;;;5051137;28;20518;-76
2023/05/01 11:56:31;;;;;;;14.10;9.83;;;16.90;66.30;;;;;;5050816;28;20192;-76
2023/05/01 11:59:08;;;;;;;12.37;8.90;;;16.40;67.30;;;;;;5032546;28;20476;-75
2023/05/01 12:01:39;;;;;;;15.70;9.17;;;16.50;67.70;;;;;;5050627;28;20431;-74
2023/05/01 12:04:09;;;;;;;14.37;9.10;;;16.90;67.00;;;;;;5032881;28;20468;-75
2023/05/01 12:06:45;;;;;;;12.50;9.50;;;17.10;66.10;;;;;;5050457;28;20462;-76
2023/05/01 12:09:15;;;;;;;11.57;8.30;;;17.10;66.10;;;;;;5031468;28;20458;-77
2023/05/01 12:11:42;;;;;;;13.80;9.27;;;17.20;66.30;;;;;;5051214;28;20503;-75
2023/05/01 12:14:09;;;;;;;13.43;10.47;;;17.10;66.00;;;;;;5051364;28;20411;-76
2023/05/01 12:16:36;;;;;;;13.30;9.23;;;17.00;66.10;;;;;;5049880;28;20426;-75
2023/05/01 12:19:02;;;;;;;13.40;9.10;;;17.10;66.30;;;;;;5049959;28;20485;-75
2023/05/01 12:21:28;;;;;;;12.63;8.87;;;17.10;66.30;;;;;;5053179;28;20412;-74
2023/05/01 12:23:55;;;;;;;14.40;9.40;;;17.30;66.10;;;;;;5055793;28;20427;-75
2023/05/01 12:26:25;;;;;;;14.37;9.57;;;17.40;65.80;;;;;;5054346;28;20586;-75
2023/05/01 12:28:56;;;;;;;15.07;9.80;;;17.40;65.40;;;;;;5050927;28;20462;-74
2023/05/01 12:31:22;;;;;;;13.00;8.60;;;17.00;66.00;;;;;;5036776;28;20503;-73
2023/05/01 12:34:06;;;;;;;17.93;11.17;;;17.00;66.30;;;;;;5051109;28;20425;-76
2023/05/01 12:36:34;;;;;;;14.63;9.23;;;17.00;66.40;;;;;;5049262;28;20492;-76
2023/05/01 12:39:08;;;;;;;14.20;10.33;;;17.40;66.10;;;;;;5049056;28;20471;-75